Time;durP1;ratioP1;P1;durP2;ratioP2;P2;SDS_P1;SDS_P2;PMS_P1;PMS_P2;Temp;Humidity;BMP_temperature;BMP_pressure;BME280_temperature;BME280_humidity;BME280_pressure;Samples;Min_cycle;Max_cycle;Signal;HPM_P1;HPM_P2
2023/07/17 00:01:05;;;;;;;17.37;14.37;;;26.20;98.80;;;26.84;63.02;95261.94;5077400;28;20536;-59
2023/07/17 00:03:32;;;;;;;16.90;13.20;;;26.20;98.90;;;26.82;63.25;95258.66;5082058;28;20454;-68
2023/07/17 00:06:00;;;;;;;17.03;14.07;;;26.10;99.10;;;26.79;63.18;95262.63;5072370;28;21069;-66
2023/07/17 00:08:27;;;;;;;20.00;13.23;;;26.10;99.20;;;26.76;63.08;95263.09;5081640;28;20457;-59
2023/07/17 00:10:54;;;;;;;15.30;13.57;;;26.10;99.40;;;26.73;63.35;95258.16;5072169;28;20466;-67
2023/07/17 00:13:21;;;;;;;16.20;13.30;;;26.10;99.40;;;26.72;63.67;95258.38;5080238;28;20523;-58
2023/07/17 00:15:48;;;;;;;19.20;12.77;;;26.00;99.40;;;26.70;63.45;95260.50;5075400;28;21013;-69
2023/07/17 00:18:17;;;;;;;14.73;12.03;;;26.00;99.60;;;26.68;63.26;95262.59;5079279;28;20489;-60
2023/07/17 00:20:44;;;;;;;19.53;12.83;;;26.00;99.70;;;26.64;63.75;95260.31;5078624;28;20522;-58
2023/07/17 00:23:11;;;;;;;19.73;13.50;;;26.00;99.80;;;26.62;63.57;95259.75;5077172;28;20559;-58
2023/07/17 00:25:39;;;;;;;15.20;13.60;;;26.00;99.80;;;26.62;63.47;95267.84;5074779;28;20478;-59
2023/07/17 00:28:06;;;;;;;27.27;14.03;;;25.90;99.90;;;26.60;63.55;95263.72;5072109;28;20505;-67
2023/07/17 00:30:33;;;;;;;21.73;14.10;;;25.90;99.90;;;26.58;63.59;95269.34;5075897;28;20930;-66
2023/07/17 00:33:00;;;;;;;17.83;13.23;;;25.90;99.90;;;26.56;63.74;95263.34;5076225;28;20459;-59
2023/07/17 00:35:29;;;;;;;18.03;13.20;;;25.90;99.90;;;26.53;63.70;95268.41;5075975;28;20825;-67
2023/07/17 00:37:56;;;;;;;20.47;14.33;;;25.90;99.90;;;26.50;63.73;95264.28;5077092;28;20501;-57
2023/07/17 00:40:23;;;;;;;22.73;13.70;;;25.90;99.90;;;26.46;63.56;95266.63;5076980;28;20578;-58
2023/07/17 00:42:51;;;;;;;16.77;13.93;;;25.80;99.90;;;26.44;63.79;95270.59;5075910;28;20828;-66
2023/07/17 00:45:18;;;;;;;14.87;13.30;;;25.80;99.90;;;26.40;63.93;95266.69;5080053;28;20465;-67
2023/07/17 00:47:45;;;;;;;17.27;13.40;;;25.80;99.90;;;26.37;63.65;95268.00;5074761;28;20477;-58
2023/07/17 00:50:12;;;;;;;16.43;13.20;;;25.70;99.90;;;26.34;63.79;95270.34;5079307;28;21129;-68
2023/07/17 00:52:41;;;;;;;15.97;14.10;;;25.70;99.90;;;26.30;63.81;95270.78;5070019;28;20447;-68
2023/07/17 00:55:09;;;;;;;19.93;13.40;;;25.70;99.90;;;26.27;63.72;95265.88;5075435;28;20465;-58
2023/07/17 00:57:36;;;;;;;14.63;13.10;;;25.60;99.90;;;26.22;64.12;95268.41;5075189;28;20455;-67
2023/07/17 01:00:05;;;;;;;14.33;12.47;;;25.60;99.90;;;26.18;63.77;95263.69;5077374;28;20528;-59
2023/07/17 01:02:33;;;;;;;16.40;13.47;;;25.50;99.90;;;26.10;63.82;95268.38;5074096;28;20946;-66
2023/07/17 01:05:00;;;;;;;14.70;12.07;;;25.50;99.90;;;26.06;63.78;95269.88;5075781;28;20476;-67
2023/07/17 01:07:27;;;;;;;14.60;11.37;;;25.50;99.90;;;26.02;63.47;95268.66;5074298;28;21018;-59
2023/07/17 01:09:56;;;;;;;22.43;11.37;;;25.40;99.90;;;25.98;62.88;95277.44;5077953;28;20965;-69
2023/07/17 01:12:23;;;;;;;20.17;10.33;;;25.40;99.70;;;25.94;62.76;95271.63;5074567;28;20530;-67
2023/07/17 01:14:50;;;;;;;15.13;11.00;;;25.30;99.20;;;25.90;62.27;95262.34;5077436;28;20469;-58
2023/07/17 01:17:17;;;;;;;14.20;10.27;;;25.30;99.10;;;25.87;62.24;95265.50;5071844;28;20869;-65
2023/07/17 01:19:45;;;;;;;16.00;9.60;;;25.20;99.10;;;25.85;61.76;95273.00;5079885;28;20489;-57
2023/07/17 01:22:16;;;;;;;10.90;9.30;;;25.20;98.90;;;25.83;61.63;95269.72;5072084;28;20446;-59
2023/07/17 01:24:45;;;;;;;13.80;8.53;;;25.20;98.20;;;25.83;61.04;95280.50;5079299;28;20470;-67
2023/07/17 01:27:12;;;;;;;15.00;8.03;;;25.20;98.30;;;25.82;60.84;95273.44;5067700;28;20450;-66
2023/07/17 01:29:40;;;;;;;9.57;8.47;;;25.20;97.90;;;25.80;60.30;95275.56;5078663;28;20902;-67
2023/07/17 01:32:08;;;;;;;18.17;8.40;;;25.20;97.30;;;25.77;59.53;95266.84;5070706;28;20455;-59
2023/07/17 01:34:35;;;;;;;8.53;7.70;;;25.10;96.80;;;25.76;59.50;95270.63;5077017;28;20503;-67
2023/07/17 01:37:02;;;;;;;13.67;7.37;;;25.10;96.50;;;25.73;58.62;95265.69;5077885;28;20454;-58
2023/07/17 01:39:30;;;;;;;13.27;6.80;;;25.10;96.10;;;25.72;58.95;95265.91;5075209;28;20591;-61
2023/07/17 01:41:58;;;;;;;8.13;7.37;;;25.10;95.80;;;25.69;58.31;95263.66;5076993;28;20894;-67
2023/07/17 01:44:27;;;;;;;7.03;6.40;;;25.10;95.70;;;25.67;58.00;95266.56;5071183;28;20876;-58
2023/07/17 01:46:55;;;;;;;9.87;6.93;;;25.10;95.40;;;25.66;58.03;95280.28;5074513;28;20453;-67
2023/07/17 01:49:22;;;;;;;9.90;7.37;;;25.00;95.30;;;25.65;57.89;95273.22;5074795;28;20446;-68
2023/07/17 01:51:49;;;;;;;15.57;8.20;;;25.00;95.20;;;25.65;58.17;95279.44;5069659;28;20504;-59
2023/07/17 01:54:17;;;;;;;10.67;6.40;;;25.10;95.20;;;25.65;57.65;95284.81;5069044;28;20505;-67
2023/07/17 01:56:44;;;;;;;9.03;6.40;;;25.00;95.20;;;25.66;57.97;95288.34;5077300;28;20473;-67
2023/07/17 01:59:12;;;;;;;8.80;6.50;;;25.00;95.10;;;25.64;57.86;95293.97;5080863;28;20480;-59
2023/07/17 02:01:40;;;;;;;10.60;9.10;;;25.00;95.00;;;25.64;57.95;95291.28;5074822;28;20512;-67
2023/07/17 02:04:07;;;;;;;18.57;12.20;;;25.00;95.40;;;25.67;59.13;95292.69;5073802;28;20454;-60
2023/07/17 02:06:34;;;;;;;20.17;12.00;;;25.10;96.20;;;25.64;59.80;95288.56;5080322;28;20577;-59
2023/07/17 02:09:01;;;;;;;16.30;13.30;;;25.00;96.50;;;25.63;60.53;95292.31;5071927;28;20515;-58
2023/07/17 02:11:30;;;;;;;17.47;13.30;;;25.00;97.20;;;25.62;61.22;95287.97;5077783;28;20474;-58
2023/07/17 02:13:57;;;;;;;20.10;13.90;;;25.00;97.80;;;25.59;61.23;95291.09;5072549;28;20830;-59
2023/07/17 02:16:26;;;;;;;13.93;12.33;;;25.00;98.10;;;25.57;61.54;95298.59;5073961;28;20466;-58
2023/07/17 02:18:52;;;;;;;18.33;13.37;;;25.00;98.40;;;25.56;61.53;95292.38;5071546;28;20563;-59
2023/07/17 02:21:19;;;;;;;15.67;13.87;;;24.90;98.50;;;25.52;61.94;95291.19;5075687;28;20473;-58
2023/07/17 02:23:47;;;;;;;20.27;14.97;;;24.90;98.70;;;25.50;62.10;95292.44;5074775;28;20967;-58
2023/07/17 02:26:14;;;;;;;20.13;13.90;;;24.90;99.00;;;25.44;62.33;95291.47;5074421;28;20462;-67
2023/07/17 02:28:41;;;;;;;20.77;14.00;;;24.80;98.90;;;25.40;63.05;95299.16;5076971;28;20500;-58
2023/07/17 02:31:08;;;;;;;16.77;13.17;;;24.80;99.30;;;25.35;62.83;95296.31;5080973;28;21489;-58
2023/07/17 02:33:37;;;;;;;16.20;13.47;;;24.80;99.50;;;25.30;63.44;95293.47;5076012;28;20446;-58
2023/07/17 02:36:05;;;;;;;16.73;14.93;;;24.70;99.70;;;25.26;63.18;95302.19;5076836;28;20472;-59
2023/07/17 02:38:32;;;;;;;20.70;14.37;;;24.70;99.80;;;25.21;63.79;95306.34;5076524;28;21033;-58
2023/07/17 02:41:00;;;;;;;15.50;14.00;;;24.70;99.90;;;25.17;63.65;95310.53;5082277;28;20469;-58
2023/07/17 02:43:28;;;;;;;19.93;15.10;;;24.60;99.90;;;25.13;64.25;95305.78;5078446;28;20450;-59
2023/07/17 02:45:55;;;;;;;20.37;14.03;;;24.50;99.90;;;25.09;64.09;95302.72;5080640;28;20473;-60
2023/07/17 02:48:22;;;;;;;17.40;13.63;;;24.50;99.90;;;25.08;63.82;95302.94;5078324;28;20457;-60
2023/07/17 02:50:52;;;;;;;19.63;14.20;;;24.50;99.90;;;25.03;63.99;95299.03;5079971;28;20473;-60
2023/07/17 02:53:20;;;;;;;16.10;13.70;;;24.40;99.90;;;25.01;64.68;95306.53;5075150;28;20446;-59
2023/07/17 02:55:47;;;;;;;16.50;14.20;;;24.40;99.90;;;24.98;63.97;95312.34;5075658;28;20466;-60
2023/07/17 02:58:16;;;;;;;17.80;14.70;;;24.40;99.90;;;24.94;64.84;95303.09;5079885;28;20965;-60
2023/07/17 03:00:44;;;;;;;15.57;13.77;;;24.40;99.90;;;24.92;64.66;95305.16;5081889;28;20577;-60
2023/07/17 03:03:11;;;;;;;26.30;14.00;;;24.30;99.90;;;24.88;65.02;95303.97;5080342;28;20449;-63
2023/07/17 03:05:38;;;;;;;15.13;13.07;;;24.30;99.90;;;24.84;65.02;95306.25;5077870;28;20466;-64
2023/07/17 03:08:07;;;;;;;20.93;14.73;;;24.30;99.90;;;24.82;64.49;95308.34;5075874;28;20916;-59
2023/07/17 03:10:34;;;;;;;19.40;15.07;;;24.30;99.90;;;24.79;64.67;95318.72;5081324;28;20494;-61
2023/07/17 03:13:01;;;;;;;20.27;14.00;;;24.30;99.90;;;24.79;64.89;95314.16;5074273;28;20506;-61
2023/07/17 03:15:29;;;;;;;16.77;15.00;;;24.20;99.90;;;24.81;64.75;95314.75;5077837;28;20474;-65
2023/07/17 03:17:56;;;;;;;14.50;12.87;;;24.20;99.90;;;24.83;65.39;95325.28;5080620;28;20446;-59
2023/07/17 03:20:23;;;;;;;15.70;13.07;;;24.30;99.90;;;24.86;65.19;95330.22;5073318;28;20493;-60
2023/07/17 03:22:50;;;;;;;21.90;13.80;;;24.30;99.90;;;24.86;64.93;95328.38;5080519;28;20507;-64
2023/07/17 03:25:19;;;;;;;19.90;14.77;;;24.30;99.90;;;24.86;64.86;95325.69;5076880;28;20474;-62
2023/07/17 03:27:47;;;;;;;17.27;14.23;;;24.30;99.90;;;24.91;65.08;95333.13;5079972;28;20868;-65
2023/07/17 03:30:14;;;;;;;16.33;13.77;;;24.30;99.90;;;24.92;64.80;95332.06;5073424;28;20493;-66
2023/07/17 03:32:41;;;;;;;22.33;15.30;;;24.30;99.90;;;24.94;64.57;95338.06;5080002;28;20446;-67
2023/07/17 03:35:10;;;;;;;14.67;13.03;;;24.30;99.90;;;24.92;64.85;95337.44;5072669;28;20469;-58
2023/07/17 03:37:37;;;;;;;17.53;12.87;;;24.30;99.90;;;24.92;64.26;95334.75;5080094;28;20450;-60
2023/07/17 03:40:07;;;;;;;14.10;12.10;;;24.30;99.90;;;24.89;64.73;95335.19;5078685;28;20538;-67
2023/07/17 03:42:36;;;;;;;19.77;14.37;;;24.30;99.90;;;24.83;64.86;95320.75;5078841;28;20960;-69
2023/07/17 03:45:04;;;;;;;19.83;14.00;;;24.30;99.90;;;24.84;64.24;95340.41;5079014;28;20469;-66
2023/07/17 03:47:31;;;;;;;15.33;13.70;;;24.30;99.90;;;24.83;64.41;95344.13;5077757;28;20453;-67
2023/07/17 03:49:59;;;;;;;28.83;13.70;;;24.30;99.90;;;24.82;64.49;95342.50;5077645;28;20465;-68
2023/07/17 03:52:26;;;;;;;17.53;14.17;;;24.20;99.90;;;24.80;63.98;95345.41;5074872;28;20448;-60
2023/07/17 03:54:54;;;;;;;22.33;14.10;;;24.20;99.90;;;24.79;64.64;95351.81;5075009;28;20481;-60
2023/07/17 03:57:21;;;;;;;19.70;12.80;;;24.20;99.90;;;24.80;63.91;95347.25;5079975;28;20453;-65
2023/07/17 03:59:51;;;;;;;24.50;12.03;;;24.20;99.90;;;24.80;64.43;95339.19;5076130;28;20530;-60
2023/07/17 04:02:18;;;;;;;24.80;12.20;;;24.20;99.90;;;24.79;64.31;95345.63;5072189;28;20465;-60
2023/07/17 04:04:46;;;;;;;23.40;12.67;;;24.20;99.90;;;24.78;64.02;95350.16;5078228;28;20489;-65
2023/07/17 04:07:13;;;;;;;18.33;12.53;;;24.20;99.90;;;24.78;64.08;95350.16;5077740;28;20457;-65
2023/07/17 04:09:40;;;;;;;20.67;12.23;;;24.20;99.90;;;24.77;64.13;95353.06;5078047;28;20466;-60
2023/07/17 04:12:09;;;;;;;15.73;12.80;;;24.20;99.90;;;24.75;63.70;95352.47;5078036;28;20447;-62
2023/07/17 04:14:36;;;;;;;18.33;11.10;;;24.20;99.90;;;24.74;63.43;95348.97;5081865;28;20457;-60
2023/07/17 04:17:05;;;;;;;14.90;11.90;;;24.20;99.90;;;24.76;63.49;95351.44;5074797;28;20458;-64
2023/07/17 04:19:33;;;;;;;18.30;13.53;;;24.20;99.90;;;24.78;63.83;95352.84;5081000;28;20921;-59
2023/07/17 04:22:00;;;;;;;14.00;11.73;;;24.20;99.90;;;24.82;63.87;95359.47;5073051;28;20469;-62
2023/07/17 04:24:27;;;;;;;20.23;11.70;;;24.20;99.90;;;24.88;63.77;95358.59;5079921;28;20454;-64
2023/07/17 04:26:55;;;;;;;19.93;12.87;;;24.30;99.90;;;24.94;63.40;95358.75;5069678;28;20446;-64
2023/07/17 04:29:23;;;;;;;19.33;11.67;;;24.30;99.90;;;24.97;62.88;95359.16;5078363;28;20833;-60
2023/07/17 04:31:50;;;;;;;15.17;10.77;;;24.40;99.90;;;25.00;63.05;95360.56;5076385;28;20465;-65
2023/07/17 04:34:19;;;;;;;17.93;11.77;;;24.40;99.90;;;25.04;62.97;95370.69;5078386;28;20461;-61
2023/07/17 04:36:47;;;;;;;21.80;11.10;;;24.40;99.90;;;25.09;62.58;95371.91;5075507;28;20471;-67
2023/07/17 04:39:14;;;;;;;17.10;12.60;;;24.50;99.90;;;25.13;62.47;95370.41;5076226;28;20550;-68
2023/07/17 04:41:41;;;;;;;21.07;11.60;;;24.50;99.90;;;25.16;62.50;95378.88;5073231;28;20539;-68
2023/07/17 04:44:08;;;;;;;14.60;11.17;;;24.50;99.70;;;25.19;62.29;95372.22;5075363;28;20513;-69
2023/07/17 04:46:36;;;;;;;23.63;11.97;;;24.60;99.60;;;25.20;61.53;95373.88;5073960;28;20477;-70
2023/07/17 04:49:03;;;;;;;14.93;11.03;;;24.60;99.40;;;25.18;61.92;95365.22;5074107;28;20537;-67
2023/07/17 04:51:32;;;;;;;17.03;11.23;;;24.60;99.30;;;25.22;61.71;95371.78;5082081;28;20602;-69
2023/07/17 04:53:59;;;;;;;16.13;11.97;;;24.60;99.10;;;25.21;61.23;95375.53;5078210;28;20450;-59
2023/07/17 04:56:26;;;;;;;15.10;9.80;;;24.60;98.80;;;25.21;61.23;95375.53;5075499;28;20478;-69
2023/07/17 04:58:54;;;;;;;20.07;10.83;;;24.60;98.80;;;25.23;61.24;95373.44;5078671;28;20450;-69
2023/07/17 05:01:21;;;;;;;13.33;11.03;;;24.60;98.80;;;25.24;61.30;95378.59;5077360;28;21007;-60
2023/07/17 05:03:48;;;;;;;18.83;10.63;;;24.60;98.80;;;25.26;61.15;95383.78;5075647;28;20461;-70
2023/07/17 05:06:16;;;;;;;15.47;10.37;;;24.70;98.90;;;25.28;61.17;95387.06;5077687;28;21013;-60
2023/07/17 05:08:44;;;;;;;20.53;11.00;;;24.70;98.80;;;25.31;60.86;95389.34;5071480;28;20453;-60
2023/07/17 05:11:12;;;;;;;14.17;11.17;;;24.70;98.70;;;25.34;60.64;95386.22;5073996;28;20985;-69
2023/07/17 05:13:39;;;;;;;17.10;11.97;;;24.70;98.50;;;25.37;60.39;95382.28;5070564;28;20450;-59
2023/07/17 05:16:06;;;;;;;14.03;10.20;;;24.80;98.30;;;25.39;60.79;95388.25;5075548;28;21129;-60
2023/07/17 05:18:33;;;;;;;16.67;11.10;;;24.80;98.20;;;25.43;60.29;95388.66;5077612;28;20457;-60
2023/07/17 05:21:01;;;;;;;16.00;11.27;;;24.80;98.10;;;25.48;60.43;95392.31;5074132;28;20590;-60
2023/07/17 05:23:28;;;;;;;26.03;10.67;;;24.80;98.40;;;25.54;60.18;95379.84;5077773;28;20446;-60
2023/07/17 05:25:58;;;;;;;19.07;11.77;;;24.90;98.10;;;25.62;60.27;95384.94;5077660;28;20469;-60
2023/07/17 05:28:27;;;;;;;14.33;10.83;;;24.90;98.00;;;25.71;60.23;95386.31;5071249;28;20443;-70
2023/07/17 05:30:55;;;;;;;19.63;11.27;;;25.10;97.90;;;25.84;59.88;95389.91;5081334;28;20564;-69
2023/07/17 05:33:22;;;;;;;14.77;10.93;;;25.10;97.80;;;25.97;59.00;95389.78;5071507;28;20480;-69
2023/07/17 05:35:49;;;;;;;12.87;11.17;;;25.30;97.50;;;26.07;58.61;95395.53;5080776;28;20586;-68
2023/07/17 05:38:17;;;;;;;23.27;11.40;;;25.40;97.10;;;26.17;58.50;95388.78;5071535;28;20935;-68
2023/07/17 05:40:44;;;;;;;18.47;11.27;;;25.50;96.80;;;26.25;58.14;95397.38;5079816;28;20489;-67
2023/07/17 05:43:13;;;;;;;19.60;10.70;;;25.60;96.70;;;26.37;57.82;95394.78;5072732;28;20457;-69
2023/07/17 05:45:40;;;;;;;26.17;10.93;;;25.70;96.50;;;26.56;57.43;95400.16;5079016;28;20891;-67
2023/07/17 05:48:07;;;;;;;18.03;10.97;;;25.80;96.00;;;26.72;57.17;95404.94;5074875;28;20450;-69
2023/07/17 05:50:35;;;;;;;15.30;9.93;;;25.90;95.70;;;26.91;56.23;95407.59;5078310;28;20491;-68
2023/07/17 05:53:03;;;;;;;15.10;10.50;;;26.10;95.20;;;27.08;56.46;95403.19;5072204;28;20927;-69
2023/07/17 05:55:30;;;;;;;13.67;10.00;;;26.30;95.00;;;27.25;55.86;95405.22;5073381;28;20477;-69
2023/07/17 05:57:58;;;;;;;14.30;9.67;;;26.50;94.80;;;27.38;55.45;95398.84;5075460;28;20951;-59
2023/07/17 06:00:26;;;;;;;16.47;10.37;;;26.60;94.40;;;27.49;55.12;95404.22;5083349;28;20494;-70
2023/07/17 06:02:53;;;;;;;12.53;11.23;;;26.70;94.10;;;27.60;54.85;95408.00;5072646;28;20450;-60
2023/07/17 06:05:21;;;;;;;19.50;9.67;;;26.80;93.90;;;27.65;54.37;95404.59;5079930;28;20473;-60
2023/07/17 06:07:48;;;;;;;12.90;10.80;;;26.90;93.50;;;27.69;54.63;95398.50;5072690;28;20820;-60
2023/07/17 06:10:16;;;;;;;20.80;10.10;;;26.90;93.10;;;27.85;54.48;95404.25;5082741;28;21000;-68
2023/07/17 06:12:43;;;;;;;14.83;9.00;;;27.00;93.00;;;27.98;53.66;95403.22;5076342;28;20493;-58
2023/07/17 06:15:13;;;;;;;21.60;11.10;;;27.20;92.80;;;28.12;53.48;95403.78;5077681;28;20565;-61
2023/07/17 06:17:42;;;;;;;20.93;9.80;;;27.30;92.60;;;28.23;53.63;95401.09;5074713;28;20526;-61
2023/07/17 06:20:09;;;;;;;11.17;9.33;;;27.40;92.30;;;28.29;52.57;95398.47;5075027;28;20497;-60
2023/07/17 06:22:37;;;;;;;14.07;8.60;;;27.50;91.50;;;28.32;52.29;95393.44;5078852;28;20332;-62
2023/07/17 06:25:05;;;;;;;13.03;8.60;;;27.50;91.40;;;28.47;52.13;95392.91;5073910;28;20481;-62
2023/07/17 06:27:33;;;;;;;13.43;9.90;;;27.70;91.30;;;28.67;51.87;95394.41;5069881;28;20204;-70
2023/07/17 06:30:00;;;;;;;25.57;12.17;;;27.80;91.00;;;28.90;51.36;95397.03;5073248;28;20641;-70
2023/07/17 06:32:28;;;;;;;14.80;8.47;;;28.00;90.40;;;29.14;51.58;95394.19;5076524;28;20215;-69
2023/07/17 06:34:56;;;;;;;14.53;8.33;;;28.30;90.20;;;29.36;50.99;95385.38;5075894;28;20228;-61
2023/07/17 06:37:24;;;;;;;18.63;8.20;;;28.50;89.70;;;29.56;49.72;95390.31;5076441;28;20257;-59
2023/07/17 06:39:51;;;;;;;16.77;8.20;;;28.70;88.10;;;29.75;49.51;95393.59;5075463;28;20232;-69
2023/07/17 06:42:18;;;;;;;13.17;9.23;;;28.90;87.40;;;29.92;49.42;95389.00;5075665;28;20643;-70
2023/07/17 06:44:45;;;;;;;15.33;8.97;;;29.10;87.00;;;30.09;48.05;95388.16;5075723;28;20228;-62
2023/07/17 06:47:13;;;;;;;12.97;8.50;;;29.30;83.90;;;30.20;47.66;95387.22;5077263;28;20199;-68
2023/07/17 06:49:41;;;;;;;20.37;8.80;;;29.40;83.80;;;30.32;47.57;95387.91;5073933;28;20212;-60
2023/07/17 06:52:10;;;;;;;16.45;8.35;;;29.50;83.10;;;30.43;46.95;95388.91;5069409;28;20220;-68
2023/07/17 06:54:37;;;;;;;13.57;8.87;;;29.60;82.30;;;30.54;47.67;95390.66;5070789;28;20668;-69
2023/07/17 06:57:05;;;;;;;19.10;9.70;;;29.70;82.40;;;30.67;47.66;95388.63;5079902;28;20196;-60
2023/07/17 06:59:32;;;;;;;12.48;9.20;;;29.80;81.70;;;30.79;46.94;95381.16;5078136;28;20204;-70
2023/07/17 07:01:59;;;;;;;13.35;9.70;;;30.00;81.70;;;30.77;47.29;95385.19;5073366;28;20203;-70
2023/07/17 07:04:27;;;;;;;11.60;9.75;;;30.00;80.60;;;30.68;46.55;95385.66;5069813;28;20226;-68
2023/07/17 07:06:54;;;;;;;14.32;9.82;;;29.90;79.90;;;30.65;46.64;95375.31;5078121;28;20211;-70
2023/07/17 07:09:23;;;;;;;16.88;8.93;;;29.90;79.70;;;30.56;46.76;95384.97;5076223;28;20280;-69
2023/07/17 07:11:50;;;;;;;17.50;9.25;;;29.80;79.00;;;30.49;45.97;95381.63;5075381;28;20587;-61
2023/07/17 07:14:17;;;;;;;15.15;7.63;;;29.70;79.00;;;30.46;46.92;95382.13;5075656;28;20211;-69
2023/07/17 07:16:44;;;;;;;21.27;9.48;;;29.60;78.60;;;30.55;46.48;95384.16;5078295;28;20269;-61
2023/07/17 07:19:12;;;;;;;15.60;8.30;;;29.70;79.00;;;30.77;46.18;95374.34;5077530;28;20215;-61
2023/07/17 07:21:40;;;;;;;17.08;8.20;;;29.90;78.70;;;30.99;45.36;95372.44;5080667;28;20231;-70
2023/07/17 07:24:07;;;;;;;13.32;9.10;;;30.10;77.70;;;31.23;45.04;95369.38;5077913;28;20211;-61
2023/07/17 07:26:37;;;;;;;18.67;8.85;;;30.30;77.20;;;31.45;45.23;95361.16;5078724;28;20224;-61
2023/07/17 07:29:04;;;;;;;10.18;7.28;;;30.60;77.10;;;31.66;45.01;95362.16;5078095;28;20204;-61
2023/07/17 07:31:31;;;;;;;16.83;7.78;;;30.80;76.30;;;31.90;44.43;95362.59;5081436;28;20276;-67
2023/07/17 07:33:58;;;;;;;9.15;8.25;;;31.00;75.40;;;32.13;43.48;95363.28;5075709;28;20211;-70
2023/07/17 07:36:28;;;;;;;12.10;7.72;;;31.20;73.50;;;32.36;43.37;95364.75;5075926;28;20273;-70
2023/07/17 07:38:55;;;;;;;22.95;8.32;;;31.40;73.20;;;32.58;43.50;95366.47;5078697;28;20200;-70
2023/07/17 07:41:22;;;;;;;11.90;7.88;;;31.60;72.80;;;32.69;42.83;95369.00;5078893;28;20235;-60
2023/07/17 07:43:51;;;;;;;14.38;8.55;;;31.80;72.20;;;32.71;42.79;95360.56;5078972;28;20197;-70
2023/07/17 07:46:18;;;;;;;14.73;10.13;;;31.80;71.40;;;32.74;42.60;95368.19;5077145;28;20224;-61
2023/07/17 07:48:45;;;;;;;14.75;8.73;;;31.90;71.10;;;32.83;42.35;95363.88;5081562;28;20644;-69
2023/07/17 07:51:13;;;;;;;10.13;8.85;;;31.90;70.70;;;32.91;42.06;95356.25;5075496;28;20735;-71
2023/07/17 07:53:40;;;;;;;15.10;9.35;;;32.00;70.50;;;33.00;42.38;95358.19;5073261;28;20265;-61
2023/07/17 07:56:07;;;;;;;17.77;11.63;;;32.10;70.90;;;33.13;42.79;95353.28;5077692;28;20224;-60
2023/07/17 07:58:34;;;;;;;14.50;10.60;;;32.20;71.00;;;33.16;42.18;95359.00;5080283;28;20202;-69
2023/07/17 08:01:03;;;;;;;20.00;10.00;;;32.30;70.30;;;33.18;42.43;95347.84;5078896;28;20232;-71
2023/07/17 08:03:30;;;;;;;25.70;9.35;;;32.30;70.30;;;33.30;42.40;95345.69;5078382;28;20295;-60
2023/07/17 08:05:58;;;;;;;12.38;8.82;;;32.40;70.20;;;33.49;41.05;95348.69;5076394;28;20235;-69
2023/07/17 08:08:25;;;;;;;22.27;10.02;;;32.50;67.50;;;33.66;41.47;95340.22;5083629;28;20280;-70
2023/07/17 08:10:53;;;;;;;19.20;10.70;;;32.80;69.20;;;33.85;41.69;95340.50;5074671;28;20286;-61
2023/07/17 08:13:21;;;;;;;24.05;10.65;;;32.90;69.10;;;34.07;41.71;95348.34;5082121;28;20304;-60
2023/07/17 08:15:49;;;;;;;10.80;9.27;;;33.20;68.30;;;34.28;41.61;95346.41;5073259;28;20239;-71
2023/07/17 08:18:18;;;;;;;15.73;9.73;;;33.40;68.20;;;34.46;41.66;95344.97;5080760;28;20203;-71
2023/07/17 08:20:46;;;;;;;16.48;11.75;;;33.60;67.60;;;34.61;40.71;95340.53;5075947;28;20239;-61
2023/07/17 08:23:13;;;;;;;14.77;10.15;;;33.70;67.40;;;34.75;41.54;95340.72;5080133;28;20196;-70
2023/07/17 08:25:40;;;;;;;14.18;10.35;;;33.80;67.40;;;34.90;40.81;95340.66;5076321;28;20700;-71
2023/07/17 08:28:07;;;;;;;15.35;9.57;;;34.00;66.30;;;35.04;41.36;95334.56;5078364;28;20245;-60
2023/07/17 08:30:35;;;;;;;20.70;11.43;;;34.20;66.80;;;35.15;40.54;95330.66;5077104;28;20223;-62
2023/07/17 08:33:02;;;;;;;18.88;11.65;;;34.30;66.10;;;35.15;40.27;95333.38;5077359;28;20211;-71
2023/07/17 08:35:31;;;;;;;17.23;10.38;;;34.30;65.80;;;35.26;40.72;95331.41;5070247;28;20661;-70
2023/07/17 08:37:58;;;;;;;12.50;10.50;;;34.40;65.90;;;35.44;40.22;95330.72;5074389;28;20200;-61
2023/07/17 08:40:27;;;;;;;13.48;10.40;;;34.50;65.90;;;35.65;39.99;95331.38;5075055;28;20736;-61
2023/07/17 08:42:54;;;;;;;16.90;11.70;;;34.70;65.50;;;35.84;40.11;95330.69;5076109;28;20257;-60
2023/07/17 08:45:23;;;;;;;21.42;11.32;;;34.90;64.70;;;36.01;39.18;95327.50;5076889;28;20223;-71
2023/07/17 08:47:50;;;;;;;22.13;13.23;;;35.10;64.10;;;36.08;38.72;95327.94;5080209;28;20277;-61
2023/07/17 08:50:17;;;;;;;22.83;14.18;;;35.20;63.50;;;36.07;39.05;95326.31;5076494;28;20796;-71
2023/07/17 08:52:46;;;;;;;23.75;12.02;;;35.20;63.30;;;36.05;38.99;95328.50;5070514;28;20192;-70
2023/07/17 08:55:13;;;;;;;21.60;11.52;;;35.20;63.30;;;36.10;39.32;95320.25;5078053;28;20227;-61
2023/07/17 08:57:40;;;;;;;24.00;11.52;;;35.20;63.10;;;36.23;39.12;95321.47;5073204;28;20429;-69
2023/07/17 09:00:15;;;;;;;28.73;12.45;;;35.30;63.40;;;36.41;38.87;95325.41;5086298;28;20325;-70
2023/07/17 09:02:42;;;;;;;13.35;11.00;;;35.50;62.70;;;36.57;38.77;95324.09;5070201;28;20249;-61
2023/07/17 09:05:09;;;;;;;14.50;10.93;;;35.60;62.70;;;36.75;38.57;95319.78;5081818;28;20227;-70
2023/07/17 09:07:37;;;;;;;18.20;12.13;;;35.80;62.40;;;36.95;38.47;95323.31;5072723;28;20211;-61
2023/07/17 09:10:20;;;;;;;15.25;10.88;;;36.00;61.90;;;37.13;37.58;95322.47;5081138;28;20827;-61
2023/07/17 09:12:52;;;;;;;22.10;11.05;;;36.20;60.50;;;37.27;37.84;95314.34;5070960;28;20640;-61
2023/07/17 09:15:19;;;;;;;17.70;10.85;;;36.40;61.30;;;37.37;37.33;95313.38;5077864;28;20333;-70
2023/07/17 09:17:47;;;;;;;22.80;12.20;;;36.50;59.80;;;37.40;37.13;95310.03;5075786;28;20211;-61
2023/07/17 09:20:16;;;;;;;16.45;12.40;;;36.50;59.20;;;37.45;37.13;95312.69;5078133;28;20227;-72
2023/07/17 09:22:43;;;;;;;19.17;10.77;;;36.60;59.30;;;37.56;37.12;95309.78;5076511;28;20612;-72
2023/07/17 09:25:11;;;;;;;20.27;10.75;;;36.70;59.30;;;37.66;36.70;95309.56;5076680;28;20232;-71
2023/07/17 09:27:47;;;;;;;10.82;9.43;;;36.80;58.60;;;37.76;35.91;95303.94;5069688;28;20204;-61
2023/07/17 09:30:16;;;;;;;16.55;9.32;;;36.80;57.60;;;37.86;36.08;95294.69;5073386;28;20277;-71
2023/07/17 09:32:43;;;;;;;19.20;12.10;;;36.90;57.50;;;37.94;35.88;95295.91;5078578;28;20671;-60
2023/07/17 09:35:12;;;;;;;12.57;10.02;;;37.00;57.20;;;38.01;35.83;95293.59;5071814;28;20278;-60
2023/07/17 09:37:41;;;;;;;10.18;8.63;;;37.10;57.10;;;38.08;35.66;95288.50;5079569;28;20286;-61
2023/07/17 09:40:11;;;;;;;21.00;9.70;;;37.20;56.90;;;38.15;35.54;95288.91;5072314;28;20224;-60
2023/07/17 09:42:39;;;;;;;26.27;9.88;;;37.30;56.60;;;38.19;35.70;95289.16;5079276;28;20223;-60
2023/07/17 09:45:11;;;;;;;14.48;9.10;;;37.30;56.70;;;38.12;35.46;95289.50;5073614;28;20285;-62
2023/07/17 09:47:38;;;;;;;13.18;8.40;;;37.20;55.70;;;38.09;34.70;95284.63;5079040;28;20199;-61
2023/07/17 09:50:07;;;;;;;20.15;8.27;;;37.20;55.30;;;38.10;35.06;95289.00;5073387;28;20224;-59
2023/07/17 09:52:34;;;;;;;19.08;8.68;;;37.20;55.30;;;38.15;35.12;95283.41;5071181;28;20668;-72
2023/07/17 09:55:02;;;;;;;14.30;8.57;;;37.30;55.40;;;38.20;34.26;95290.75;5074223;28;20265;-61
2023/07/17 09:57:30;;;;;;;16.30;9.27;;;37.30;54.40;;;38.22;34.59;95287.69;5076134;28;20809;-72
2023/07/17 09:59:58;;;;;;;30.95;9.07;;;37.30;54.60;;;38.17;34.10;95283.97;5083926;28;20231;-71
2023/07/17 10:02:31;;;;;;;19.17;8.77;;;37.30;54.10;;;38.12;34.46;95286.75;5070667;28;21133;-60
2023/07/17 10:05:00;;;;;;;13.45;8.15;;;37.30;54.60;;;38.03;32.59;95278.44;5076587;28;20788;-69
2023/07/17 10:07:29;;;;;;;9.88;8.65;;;37.20;51.50;;;37.83;32.69;95276.91;5071724;28;20200;-62
2023/07/17 10:09:57;;;;;;;8.73;7.90;;;37.10;51.70;;;37.63;32.81;95275.31;5080400;28;20231;-60